General Alvear, Argentina
Current Conditions -  °F | °C
As of 7:00 PM on Friday 28 Nov 2014 (Local Time) from SAEZ Reporting Station
Clear Clear  
Wind Chill: 82°   Ceiling: Unl
Heat Index: 82°   Visibility: 6mi
Dew Point: 41°   Wind: 14mph
Humidity: 23%   Direction: 50°NE
Pressure: 29.85"   Gusts: NA
Location:  36.05°S, 60.02°W
Report Text: SAEZ 282200Z 05012KT CAVOK 28/05 Q1011
Loading
Personal Weather Stations






























Interactive Weather Map New forecast layout! Learn more

10-Day Weather Forecast

Advertisements
Track Severe Weather on mobile